• Join FlightAware (Why Join?)
  • Login
  • US Flag 
11:29PM EDT


 

Airport Tracker/Info


-or-


 

Live Flight TrackerFlight Track Log ✈ N30898 ✈ 04-May-2013 ✈ KNQA - KMQY

Flight Track Log - Related Links

Times and Time Zones

All times are in EDT time to prevent confusion due to time zone crossing. See the N30898 flight status page for this flight to view local times or setup timezone preferences in your user account.

Time Position Orientation Groundspeed Altitude Reporting Facility
EDT Latitude Longitude Course Direction KTS MPH feet Rate Location/Type
04:50PM 35.3500 -89.8833 158° South 126 145 600  Level KMEM
04:51PM 35.3167 -89.8667 158° South 137 158 1,700 1,200 Climbing KMEM
04:52PM 35.3333 -89.8167 68° East 145 167 3,000 1,200 Climbing KMEM
04:53PM 35.3333 -89.7667 90° East 143 165 4,200 1,200 Climbing KMEM
04:54PM 35.3167 -89.7167 112° Southeast 140 161 5,500 1,200 Climbing KMEM
04:55PM 35.3167 -89.6667 90° East 146 168 6,800 1,140 Climbing KMEM
04:56PM 35.3000 -89.6167 112° Southeast 163 188 7,900 1,200 Climbing KMEM
04:57PM 35.3000 -89.5500 90° East 169 194 9,400 1,200 Climbing KMEM
04:58PM 35.2833 -89.5000 112° Southeast 171 197 10,300 960 Climbing KMEM
04:59PM 35.2794 -89.4542 96° East 175 201 11,100 1,080 Climbing Memphis Center
05:00PM 35.2686 -89.3983 103° East 177 204 12,400 1,200 Climbing Memphis Center
05:01PM 35.2658 -89.3397 93° East 178 205 13,500 780 Climbing Memphis Center
05:02PM 35.2633 -89.2736 93° East 184 212 14,000 240 Climbing Memphis Center
05:03PM 35.2606 -89.2000 93° East 190 219 14,000 240 Level Memphis Center
05:04PM 35.2683 -89.1311 82° East 198 228 14,500 420 Climbing Memphis Center
05:05PM 35.2886 -89.0700 68° East 198 228 14,900 240 Climbing Memphis Center
05:06PM 35.3108 -89.0033 68° East 203 234 15,000  Climbing Memphis Center
05:07PM 35.3328 -88.9317 69° East 213 245 15,000  Level Memphis Center
05:08PM 35.3531 -88.8628 70° East 218 251 15,000  Level Memphis Center
05:09PM 35.3750 -88.7911 69° East 218 251 15,000  Level Memphis Center
05:10PM 35.3928 -88.7194 73° East 218 251 15,000  Level Memphis Center
05:11PM 35.4108 -88.6553 71° East 218 251 15,000  Level Memphis Center
05:12PM 35.4328 -88.5836 69° East 218 251 15,000  Level Memphis Center
05:13PM 35.4525 -88.5142 71° East 213 245 15,000  Level Memphis Center
05:14PM 35.4722 -88.4425 71° East 213 245 15,000  Level Memphis Center
05:15PM 35.4922 -88.3783 69° East 208 239 15,000  Level Memphis Center
05:16PM 35.5139 -88.3114 68° East 208 239 15,000  Level Memphis Center
05:17PM 35.5317 -88.2422 72° East 208 239 15,000  Level Memphis Center
05:18PM 35.5533 -88.1728 69° East 208 239 15,000 -180 Level Memphis Center
05:19PM 35.5731 -88.1033 71° East 202 232 14,700 -240 Descending Memphis Center
05:20PM 35.5925 -88.0339 71° East 202 232 14,600 -120 Descending Memphis Center
05:21PM 35.6100 -87.9669 72° East 210 242 14,500 -120 Descending Memphis Center
05:22PM 35.6294 -87.8972 71° East 205 236 14,400 -60 Descending Memphis Center
05:23PM 35.6511 -87.8278 69° East 210 242 14,400  Level Memphis Center
05:24PM 35.6683 -87.7583 73° East 210 242 14,400 -60 Level Memphis Center
05:25PM 35.6897 -87.6886 69° East 210 242 14,300 -60 Descending Memphis Center
05:26PM 35.7072 -87.6189 73° East 210 242 14,300  Level Memphis Center
05:27PM 35.7264 -87.5467 72° East 210 242 14,400 -540 Climbing Memphis Center
05:28PM 35.7436 -87.4872 70° East 210 242 13,300 -1,320 Descending Memphis Center
05:29PM 35.7631 -87.4225 70° East 203 234 11,800 -1,380 Descending Memphis Center
05:30PM 35.7764 -87.3683 73° East 182 209 10,600 -1,200 Descending Memphis Center
05:31PM 35.7917 -87.3167 70° East 167 192 9,500 -840 Descending Memphis Center
05:32PM 35.8072 -87.2622 71° East 167 192 9,000 -300 Descending Memphis Center
05:33PM 35.8244 -87.2028 70° East 173 199 9,000 -180 Level Memphis Center
05:34PM 35.8375 -87.1433 75° East 178 205 8,700 -600 Descending Memphis Center
05:35PM 35.8567 -87.0786 70° East 178 205 7,800 -900 Descending Memphis Center
05:36PM 35.8697 -87.0192 75° East 178 205 6,900 -900 Descending Memphis Center
05:37PM 35.8639 -86.9606 97° East 166 191 6,000 -900 Descending Memphis Center
05:38PM 35.8561 -86.9019 99° East 166 191 5,100 -900 Descending Memphis Center
05:39PM 35.8500 -86.8381 97° East 177 204 4,200 -900 Descending Memphis Center
05:40PM 35.8442 -86.7744 96° East 177 204 3,300 -600 Descending Memphis Center
05:41PM 35.8361 -86.7133 99° East 177 204 3,100 240 Descending Memphis Center
05:42PM 35.8322 -86.6519 94° East 177 204 3,800 180 Climbing Memphis Center
05:43PM 35.8261 -86.5883 97° East 182 209 3,500 -300 Descending Memphis Center
05:45PM 35.8167 -86.4667 95° East 143 165 3,000 -180 Descending Nashville TRACON
05:46PM 35.8167 -86.4167 90° East 142 163 3,000  Level Nashville TRACON
05:47PM 35.8500 -86.4000 22° Northeast 141 162 3,000  Level Nashville TRACON
05:48PM 35.8833 -86.3833 22° Northeast 139 160 3,000  Level Nashville TRACON
05:49PM 35.9000 -86.4000 321° Northwest 137 158 3,000 -420 Level Nashville TRACON
05:50PM 35.9333 -86.4333 321° Northwest 146 168 2,200 -840 Descending Nashville TRACON
05:54PM 35.9912 -86.5056 315° West  Level FlightAware Approximate
06:01PM 36.0000 -86.5167 328° Northwest  Level FlightAware Approximate
06:02PM 36.0090 -86.5201 328° Northwest  Level Estimated
06:03PM 36.0090 -86.5201 328° Northwest  Level Estimated
06:04PM 36.0090 -86.5201 328° Northwest  Level Estimated